createdAt,value
2019-03-20T00:01:49.134Z,20.32
2019-03-20T00:04:17.941Z,24.10
2019-03-20T00:06:46.369Z,23.20
2019-03-20T00:09:14.989Z,25.75
2019-03-20T00:11:43.554Z,29.00
2019-03-20T00:14:12.004Z,24.27
2019-03-20T00:16:40.762Z,23.25
2019-03-20T00:19:09.199Z,31.35
2019-03-20T00:21:37.646Z,25.88
2019-03-20T00:24:07.114Z,23.57
2019-03-20T00:26:35.577Z,22.55
2019-03-20T00:29:04.089Z,24.20
2019-03-20T00:31:32.522Z,22.58
2019-03-20T00:34:00.974Z,27.80
2019-03-20T00:36:29.578Z,27.15
2019-03-20T00:38:58.023Z,22.77
2019-03-20T00:41:26.454Z,24.02
2019-03-20T00:43:54.960Z,19.70
2019-03-20T00:46:23.395Z,21.60
2019-03-20T00:48:51.844Z,20.12
2019-03-20T00:51:20.285Z,23.73
2019-03-20T00:53:49.108Z,25.65
2019-03-20T00:56:17.618Z,28.32
2019-03-20T00:58:46.057Z,27.45
2019-03-20T01:01:14.570Z,21.90
2019-03-20T01:03:43.007Z,22.42
2019-03-20T01:06:11.457Z,24.60
2019-03-20T01:08:40.106Z,25.30
2019-03-20T01:11:09.970Z,21.80
2019-03-20T01:13:38.401Z,25.77
2019-03-20T01:16:06.862Z,25.75
2019-03-20T01:18:35.297Z,19.82
2019-03-20T01:21:03.741Z,27.45
2019-03-20T01:23:32.190Z,26.48
2019-03-20T01:26:00.632Z,25.77
2019-03-20T01:28:29.073Z,27.35
2019-03-20T01:30:57.513Z,25.97
2019-03-20T01:33:25.957Z,23.60
2019-03-20T01:35:54.390Z,27.85
2019-03-20T01:38:22.836Z,29.92
2019-03-20T01:40:51.275Z,27.90
2019-03-20T01:43:19.711Z,22.50
2019-03-20T01:45:48.169Z,21.57
2019-03-20T01:48:16.609Z,22.73
2019-03-20T01:50:45.067Z,27.77
2019-03-20T01:53:13.497Z,23.25
2019-03-20T01:55:41.937Z,25.10
2019-03-20T01:58:10.385Z,29.45
2019-03-20T02:00:38.846Z,21.15
2019-03-20T02:03:07.276Z,23.45
2019-03-20T02:05:36.694Z,29.35
2019-03-20T02:08:05.618Z,23.52
2019-03-20T02:10:34.057Z,26.50
2019-03-20T02:13:02.515Z,25.65
2019-03-20T02:15:38.838Z,23.00
2019-03-20T02:18:01.254Z,25.80
2019-03-20T02:20:29.723Z,24.82
2019-03-20T02:22:58.165Z,21.93
2019-03-20T02:25:26.606Z,24.02
2019-03-20T02:27:55.055Z,20.55
2019-03-20T02:30:23.499Z,27.15
2019-03-20T02:32:51.948Z,23.47
2019-03-20T02:35:20.377Z,27.95
2019-03-20T02:37:48.844Z,29.40
2019-03-20T02:40:17.706Z,23.15
2019-03-20T02:42:46.460Z,26.93
2019-03-20T02:45:17.343Z,26.95
2019-03-20T02:47:47.132Z,31.52
2019-03-20T02:50:16.741Z,26.85
2019-03-20T02:52:45.196Z,24.15
2019-03-20T02:55:14.013Z,26.60
2019-03-20T02:57:42.456Z,23.12
2019-03-20T03:00:12.440Z,26.30
2019-03-20T03:02:43.148Z,26.57
2019-03-20T03:05:12.150Z,23.47
2019-03-20T03:07:41.870Z,27.95
2019-03-20T03:10:11.850Z,27.17
2019-03-20T03:12:40.368Z,29.48
2019-03-20T03:15:09.709Z,29.85
2019-03-20T03:17:38.184Z,24.45
2019-03-20T03:20:08.171Z,30.72
2019-03-20T03:22:36.612Z,26.42
2019-03-20T03:25:06.229Z,32.93
2019-03-20T03:27:34.700Z,25.20
2019-03-20T03:30:05.382Z,29.95
2019-03-20T03:32:33.821Z,27.20
2019-03-20T03:35:02.338Z,26.77
2019-03-20T03:37:30.769Z,29.02
2019-03-20T03:39:59.211Z,27.02
2019-03-20T03:42:28.857Z,29.00
2019-03-20T03:44:57.294Z,25.45
2019-03-20T03:47:26.972Z,27.85
2019-03-20T03:49:55.454Z,28.25
2019-03-20T03:52:23.907Z,27.02
2019-03-20T03:54:52.414Z,28.07
2019-03-20T03:57:20.928Z,28.73
2019-03-20T03:59:49.395Z,30.23
2019-03-20T04:02:17.827Z,31.40
2019-03-20T04:04:46.339Z,27.75
2019-03-20T04:07:15.846Z,25.45
2019-03-20T04:09:44.285Z,30.60
2019-03-20T04:12:12.717Z,30.75
2019-03-20T04:14:41.154Z,28.12
2019-03-20T04:17:22.742Z,28.95
2019-03-20T04:19:52.439Z,34.75
2019-03-20T04:22:21.054Z,27.37
2019-03-20T04:24:49.511Z,26.97
2019-03-20T04:27:17.940Z,25.15
2019-03-20T04:29:46.377Z,30.88
2019-03-20T04:32:16.357Z,28.40
2019-03-20T04:34:46.414Z,23.50
2019-03-20T04:37:15.970Z,30.50
2019-03-20T04:39:44.414Z,23.62
2019-03-20T04:42:12.850Z,30.17
2019-03-20T04:44:41.509Z,27.07
2019-03-20T04:47:10.102Z,31.87
2019-03-20T04:49:38.549Z,29.27
2019-03-20T04:52:06.986Z,32.33
2019-03-20T04:54:35.430Z,27.80
2019-03-20T04:57:03.890Z,29.67
2019-03-20T04:59:32.331Z,28.70
2019-03-20T05:02:01.055Z,27.25
2019-03-20T05:04:29.506Z,30.00
2019-03-20T05:06:59.321Z,31.75
2019-03-20T05:09:28.063Z,27.32
2019-03-20T05:11:56.513Z,28.57
2019-03-20T05:14:24.953Z,26.93
2019-03-20T05:16:53.406Z,28.25
2019-03-20T05:19:21.911Z,38.25
2019-03-20T05:21:50.353Z,29.12
2019-03-20T05:24:18.860Z,29.82
2019-03-20T05:26:48.468Z,26.37
2019-03-20T05:29:16.900Z,29.42
2019-03-20T05:31:45.351Z,27.20
2019-03-20T05:34:13.793Z,27.02
2019-03-20T05:36:42.241Z,25.97
2019-03-20T05:39:10.682Z,27.95
2019-03-20T05:41:39.121Z,32.50
2019-03-20T05:44:07.560Z,27.48
2019-03-20T05:46:35.989Z,27.10
2019-03-20T05:49:04.437Z,35.70
2019-03-20T05:51:32.869Z,31.50
2019-03-20T05:54:01.329Z,37.03
2019-03-20T05:56:29.782Z,33.05
2019-03-20T05:58:58.225Z,32.13
2019-03-20T06:01:26.664Z,33.40
2019-03-20T06:03:55.119Z,30.77
2019-03-20T06:06:23.544Z,29.32
2019-03-20T06:08:51.989Z,30.85
2019-03-20T06:11:20.429Z,29.10
2019-03-20T06:13:48.877Z,33.75
2019-03-20T06:16:17.318Z,38.17
2019-03-20T06:18:45.789Z,31.25
2019-03-20T06:21:15.574Z,32.48
2019-03-20T06:23:44.018Z,35.08
2019-03-20T06:26:13.530Z,32.63
2019-03-20T06:28:42.048Z,32.73
2019-03-20T06:31:10.485Z,29.40
2019-03-20T06:33:40.204Z,32.25
2019-03-20T06:36:08.646Z,38.60
2019-03-20T06:38:37.087Z,34.43
2019-03-20T06:41:05.521Z,35.20
2019-03-20T06:43:35.230Z,29.80
2019-03-20T06:46:03.914Z,36.55
2019-03-20T06:48:32.350Z,35.10
2019-03-20T06:51:00.790Z,31.93
2019-03-20T06:53:29.234Z,29.65
2019-03-20T06:55:57.678Z,41.48
2019-03-20T06:58:26.119Z,50.10
2019-03-20T07:01:01.932Z,45.83
2019-03-20T07:03:32.447Z,40.12
2019-03-20T07:06:05.121Z,46.83
2019-03-20T07:08:35.088Z,44.38
2019-03-20T07:11:06.720Z,50.78
2019-03-20T07:13:35.152Z,53.33
2019-03-20T07:16:03.981Z,58.63
2019-03-20T07:18:32.527Z,48.85
2019-03-20T07:21:01.007Z,57.25
2019-03-20T07:23:29.433Z,55.98
2019-03-20T07:25:57.878Z,72.87
2019-03-20T07:28:27.288Z,48.17
2019-03-20T07:30:55.721Z,59.60
2019-03-20T07:33:24.166Z,65.15
2019-03-20T07:35:52.598Z,55.00
2019-03-20T07:38:21.309Z,60.88
2019-03-20T07:40:49.740Z,64.25
2019-03-20T07:43:18.181Z,56.80
2019-03-20T07:45:46.659Z,62.30
2019-03-20T07:48:21.988Z,62.40
2019-03-20T07:50:45.270Z,55.58
2019-03-20T07:53:13.714Z,64.07
2019-03-20T07:55:42.141Z,58.10
2019-03-20T07:58:10.586Z,68.20
2019-03-20T08:00:39.107Z,62.88
2019-03-20T08:03:07.545Z,57.55
2019-03-20T08:05:35.990Z,57.15
2019-03-20T08:08:07.684Z,63.00
2019-03-20T08:10:35.196Z,75.52
2019-03-20T08:13:03.703Z,64.10
2019-03-20T08:15:33.509Z,57.60
2019-03-20T08:18:01.948Z,62.95
2019-03-20T08:20:31.055Z,60.95
2019-03-20T08:22:59.562Z,69.05
2019-03-20T08:25:28.062Z,63.83
2019-03-20T08:27:56.496Z,69.55
2019-03-20T08:30:24.938Z,72.65
2019-03-20T08:32:53.373Z,60.52
2019-03-20T08:35:21.818Z,68.83
2019-03-20T08:37:50.241Z,64.30
2019-03-20T08:40:20.305Z,60.28
2019-03-20T08:42:48.742Z,64.60
2019-03-20T08:45:17.848Z,64.47
2019-03-20T08:47:46.358Z,62.73
2019-03-20T08:50:15.856Z,61.92
2019-03-20T08:52:44.301Z,68.37
2019-03-20T08:55:13.605Z,77.40
2019-03-20T08:57:44.464Z,74.62
2019-03-20T09:00:22.576Z,73.80
2019-03-20T09:02:52.677Z,67.50
2019-03-20T09:05:21.177Z,61.98
2019-03-20T09:07:49.608Z,64.20
2019-03-20T09:10:24.429Z,56.68
2019-03-20T09:12:52.869Z,57.27
2019-03-20T09:15:21.668Z,65.72
2019-03-20T09:17:50.105Z,72.45
2019-03-20T09:20:20.377Z,63.20
2019-03-20T09:22:48.805Z,74.22
2019-03-20T09:25:17.717Z,71.72
2019-03-20T09:27:46.225Z,80.95
2019-03-20T09:30:22.245Z,74.67
2019-03-20T09:32:52.374Z,71.22
2019-03-20T09:35:21.585Z,72.92
2019-03-20T09:37:52.133Z,64.17
2019-03-20T09:40:24.139Z,74.40
2019-03-20T09:42:52.821Z,73.60
2019-03-20T09:45:21.940Z,68.45
2019-03-20T09:47:52.684Z,60.20
2019-03-20T09:50:21.784Z,74.10
2019-03-20T09:52:50.249Z,74.90
2019-03-20T09:55:18.805Z,73.40
2019-03-20T09:57:48.652Z,61.58
2019-03-20T10:00:19.693Z,70.80
2019-03-20T10:02:48.542Z,64.22
2019-03-20T10:05:16.982Z,74.67
2019-03-20T10:07:45.416Z,77.53
2019-03-20T10:10:15.389Z,60.23
2019-03-20T10:12:43.829Z,71.72
2019-03-20T10:15:13.800Z,67.40
2019-03-20T10:17:42.531Z,64.67
2019-03-20T10:20:12.576Z,65.85
2019-03-20T10:22:41.013Z,74.15
2019-03-20T10:25:09.821Z,63.95
2019-03-20T10:27:38.249Z,70.75
2019-03-20T10:30:18.377Z,67.12
2019-03-20T10:32:46.800Z,64.87
2019-03-20T10:35:15.314Z,66.37
2019-03-20T10:37:43.755Z,64.20
2019-03-20T10:40:16.381Z,56.42
2019-03-20T10:42:44.890Z,60.58
2019-03-20T10:45:14.194Z,75.78
2019-03-20T10:47:42.643Z,67.32
2019-03-20T10:50:12.613Z,71.02
2019-03-20T10:52:41.053Z,68.72
2019-03-20T10:55:10.203Z,74.05
2019-03-20T10:57:38.646Z,59.93
2019-03-20T11:00:17.308Z,70.40
2019-03-20T11:02:45.821Z,58.92
2019-03-20T11:05:16.099Z,57.98
2019-03-20T11:07:45.818Z,58.48
2019-03-20T11:10:22.776Z,62.62
2019-03-20T11:12:51.288Z,61.92
2019-03-20T11:15:21.248Z,61.02
2019-03-20T11:17:49.687Z,65.47
2019-03-20T11:20:19.861Z,61.45
2019-03-20T11:22:48.370Z,58.33
2019-03-20T11:25:21.390Z,59.63
2019-03-20T11:27:49.894Z,55.60
2019-03-20T11:30:19.853Z,56.90
2019-03-20T11:32:48.291Z,55.98
2019-03-20T11:35:16.718Z,61.23
2019-03-20T11:37:45.151Z,61.08
2019-03-20T11:40:15.128Z,56.98
2019-03-20T11:42:43.588Z,57.88
2019-03-20T11:45:12.099Z,57.00
2019-03-20T11:47:40.544Z,61.70
2019-03-20T11:50:10.501Z,56.10
2019-03-20T11:52:38.941Z,52.10
2019-03-20T11:55:07.437Z,61.05
2019-03-20T11:57:37.296Z,61.60
2019-03-20T12:00:07.325Z,60.48
2019-03-20T12:02:35.782Z,62.50
2019-03-20T12:05:05.183Z,63.10
2019-03-20T12:07:33.629Z,57.95
2019-03-20T12:10:02.061Z,62.10
2019-03-20T12:12:30.570Z,60.83
2019-03-20T12:15:00.085Z,62.05
2019-03-20T12:17:28.522Z,65.35
2019-03-20T12:19:56.964Z,62.80
2019-03-20T12:22:25.401Z,61.50
2019-03-20T12:24:53.894Z,63.68
2019-03-20T12:27:22.353Z,59.65
2019-03-20T12:29:52.737Z,61.77
2019-03-20T12:32:21.178Z,63.60
2019-03-20T12:34:49.609Z,54.98
2019-03-20T12:37:18.305Z,65.97
2019-03-20T12:39:53.143Z,59.77
2019-03-20T12:42:16.909Z,48.80
2019-03-20T12:44:45.329Z,58.23
2019-03-20T12:47:13.779Z,57.85
2019-03-20T12:49:42.225Z,50.40
2019-03-20T12:52:11.242Z,49.98
2019-03-20T12:54:39.674Z,51.28
2019-03-20T12:57:08.114Z,51.55
2019-03-20T12:59:36.545Z,54.95
2019-03-20T13:02:04.985Z,46.25
2019-03-20T13:04:33.412Z,50.50
2019-03-20T13:07:01.857Z,53.25
2019-03-20T13:09:30.304Z,47.50
2019-03-20T13:11:58.749Z,53.23
2019-03-20T13:14:27.198Z,47.17
2019-03-20T13:16:55.621Z,51.75
2019-03-20T13:19:24.062Z,47.43
2019-03-20T13:21:52.499Z,48.33
2019-03-20T13:24:21.273Z,43.10
2019-03-20T13:26:49.720Z,47.00
2019-03-20T13:29:18.150Z,45.25
2019-03-20T13:31:46.598Z,47.38
2019-03-20T13:34:15.021Z,40.50
2019-03-20T13:36:45.064Z,45.05
2019-03-20T13:39:13.793Z,50.17
2019-03-20T13:41:42.245Z,50.20
2019-03-20T13:44:10.689Z,44.25
2019-03-20T13:46:39.117Z,55.70
2019-03-20T13:49:07.566Z,41.02
2019-03-20T13:51:35.992Z,47.67
2019-03-20T13:54:04.445Z,56.00
2019-03-20T13:56:32.889Z,42.85
2019-03-20T13:59:01.328Z,47.53
2019-03-20T14:01:29.834Z,49.98
2019-03-20T14:03:58.279Z,47.65
2019-03-20T14:06:26.712Z,40.52
2019-03-20T14:08:55.163Z,43.28
2019-03-20T14:11:23.678Z,47.62
2019-03-20T14:13:52.110Z,49.75
2019-03-20T14:16:21.625Z,44.38
2019-03-20T14:18:50.058Z,44.08
2019-03-20T14:21:18.510Z,48.45
2019-03-20T14:23:46.946Z,44.60
2019-03-20T14:26:15.389Z,40.38
2019-03-20T14:28:43.830Z,40.10
2019-03-20T14:31:12.268Z,43.30
2019-03-20T14:33:40.696Z,41.02
2019-03-20T14:36:09.154Z,42.20
2019-03-20T14:38:37.584Z,36.68
2019-03-20T14:41:06.025Z,43.17
2019-03-20T14:43:34.458Z,38.60
2019-03-20T14:46:02.892Z,36.13
2019-03-20T14:48:31.324Z,45.28
2019-03-20T14:50:59.764Z,35.83
2019-03-20T14:53:28.201Z,46.18
2019-03-20T14:55:56.646Z,43.13
2019-03-20T14:58:25.078Z,41.65
2019-03-20T15:00:53.513Z,45.78
2019-03-20T15:03:21.944Z,44.20
2019-03-20T15:05:50.384Z,43.05
2019-03-20T15:08:18.821Z,36.70
2019-03-20T15:10:47.270Z,35.08
2019-03-20T15:13:15.709Z,44.48
2019-03-20T15:15:57.960Z,43.70
2019-03-20T15:18:26.405Z,45.03
2019-03-20T15:20:54.844Z,48.50
2019-03-20T15:23:23.290Z,41.50
2019-03-20T15:25:51.724Z,44.90
2019-03-20T15:28:21.697Z,43.00
2019-03-20T15:30:50.140Z,46.58
2019-03-20T15:33:19.646Z,43.60
2019-03-20T15:35:48.084Z,42.73
2019-03-20T15:38:16.535Z,47.60
2019-03-20T15:40:44.969Z,44.55
2019-03-20T15:43:13.411Z,49.15
2019-03-20T15:45:41.845Z,42.30
2019-03-20T15:48:10.305Z,51.48
2019-03-20T15:50:38.816Z,42.78
2019-03-20T15:53:07.261Z,45.48
2019-03-20T15:55:36.773Z,52.00
2019-03-20T15:58:05.276Z,46.53
2019-03-20T16:00:33.724Z,34.20
2019-03-20T16:03:13.246Z,36.98
2019-03-20T16:05:41.697Z,42.90
2019-03-20T16:08:10.145Z,53.45
2019-03-20T16:10:38.585Z,40.85
2019-03-20T16:13:07.524Z,41.73
2019-03-20T16:15:35.952Z,40.45
2019-03-20T16:18:04.413Z,46.23
2019-03-20T16:20:33.919Z,40.48
2019-03-20T16:23:02.381Z,44.00
2019-03-20T16:25:30.897Z,45.35
2019-03-20T16:27:59.392Z,37.30
2019-03-20T16:30:28.908Z,40.85
2019-03-20T16:32:59.755Z,41.02
2019-03-20T16:35:32.928Z,39.08
2019-03-20T16:38:03.493Z,42.98
2019-03-20T16:40:36.263Z,35.30
2019-03-20T16:43:08.260Z,39.63
2019-03-20T16:45:37.973Z,38.15
2019-03-20T16:48:06.418Z,44.08
2019-03-20T16:50:35.668Z,36.03
2019-03-20T16:53:04.181Z,41.25
2019-03-20T16:55:32.676Z,39.00
2019-03-20T16:58:04.420Z,32.13
2019-03-20T17:00:33.923Z,33.25
2019-03-20T17:03:02.361Z,29.85
2019-03-20T17:05:30.979Z,30.45
2019-03-20T17:07:59.425Z,28.87
2019-03-20T17:10:31.588Z,25.68
2019-03-20T17:13:00.529Z,29.42
2019-03-20T17:15:33.477Z,30.82
2019-03-20T17:18:03.134Z,35.05
2019-03-20T17:20:57.995Z,32.30
2019-03-20T17:23:26.634Z,29.12
2019-03-20T17:25:55.069Z,28.83
2019-03-20T17:28:26.181Z,28.67
2019-03-20T17:30:54.654Z,21.37
2019-03-20T17:33:23.166Z,24.43
2019-03-20T17:35:53.924Z,31.12
2019-03-20T17:38:22.383Z,28.12
2019-03-20T17:40:54.157Z,28.57
2019-03-20T17:43:22.592Z,23.67
2019-03-20T17:45:51.032Z,26.93
2019-03-20T17:48:20.537Z,30.95
2019-03-20T17:50:51.863Z,24.60
2019-03-20T17:53:21.933Z,26.48
2019-03-20T17:55:50.393Z,26.82
2019-03-20T17:58:18.841Z,23.05
2019-03-20T18:00:51.649Z,23.30
2019-03-20T18:03:20.086Z,21.97
2019-03-20T18:05:48.524Z,25.40
2019-03-20T18:08:20.226Z,26.15
2019-03-20T18:10:48.636Z,21.30
2019-03-20T18:13:17.064Z,22.67
2019-03-20T18:15:46.907Z,31.00
2019-03-20T18:18:15.321Z,21.87
2019-03-20T18:20:43.829Z,22.98
2019-03-20T18:23:14.338Z,22.13
2019-03-20T18:25:44.089Z,24.60
2019-03-20T18:28:12.528Z,23.77
2019-03-20T18:30:43.564Z,26.87
2019-03-20T18:33:12.249Z,21.57
2019-03-20T18:35:41.975Z,25.88
2019-03-20T18:38:10.411Z,25.20
2019-03-20T18:40:38.848Z,24.35
2019-03-20T18:43:10.443Z,21.57
2019-03-20T18:48:07.704Z,26.10
2019-03-20T18:50:36.719Z,25.30
2019-03-20T18:53:06.385Z,23.65
2019-03-20T18:55:34.846Z,23.47
2019-03-20T18:58:03.429Z,24.07
2019-03-20T19:00:32.844Z,23.25
2019-03-20T19:03:10.619Z,19.80
2019-03-20T19:05:47.438Z,21.65
2019-03-20T19:08:15.967Z,18.23
2019-03-20T19:10:45.799Z,24.47
2019-03-20T19:13:14.324Z,21.48
2019-03-20T19:15:42.752Z,20.02
2019-03-20T19:18:16.930Z,17.98
2019-03-20T19:20:46.994Z,21.80
2019-03-20T19:23:17.566Z,20.82
2019-03-20T19:25:46.010Z,19.17
2019-03-20T19:28:14.707Z,18.65
2019-03-20T19:30:43.136Z,19.12
2019-03-20T19:33:11.574Z,15.93
2019-03-20T19:35:41.596Z,18.95
2019-03-20T19:38:10.021Z,20.32
2019-03-20T19:40:38.457Z,20.70
2019-03-20T19:43:06.883Z,16.75
2019-03-20T19:45:37.218Z,16.37
2019-03-20T19:48:05.747Z,15.45
2019-03-20T19:50:34.244Z,19.05
2019-03-20T19:53:03.917Z,16.32
2019-03-20T19:55:33.880Z,20.95
2019-03-20T19:58:03.121Z,20.50
2019-03-20T20:00:31.653Z,21.17
2019-03-20T20:03:00.097Z,19.57
2019-03-20T20:05:28.531Z,22.70
2019-03-20T20:07:58.201Z,16.90
2019-03-20T20:10:26.688Z,13.85
2019-03-20T20:12:55.136Z,14.98
2019-03-20T20:15:24.138Z,18.15
2019-03-20T20:17:52.574Z,20.88
2019-03-20T20:20:22.553Z,14.23
2019-03-20T20:22:50.984Z,14.95
2019-03-20T20:25:19.420Z,19.65
2019-03-20T20:27:47.852Z,13.78
2019-03-20T20:30:22.005Z,21.12
2019-03-20T20:32:50.427Z,14.65
2019-03-20T20:35:20.266Z,16.97
2019-03-20T20:40:19.855Z,16.67
2019-03-20T20:42:49.544Z,17.80
2019-03-20T20:45:18.005Z,17.82
2019-03-20T20:47:46.460Z,15.35
2019-03-20T20:50:15.564Z,16.77
2019-03-20T20:52:44.066Z,16.87
2019-03-20T20:55:19.430Z,18.32
2019-03-20T20:57:47.947Z,18.82
2019-03-20T21:00:17.357Z,19.50
2019-03-20T21:02:45.787Z,14.68
2019-03-20T21:05:14.209Z,18.60
2019-03-20T21:07:42.646Z,18.50
2019-03-20T21:10:15.517Z,17.95
2019-03-20T21:12:55.440Z,16.00
2019-03-20T21:15:33.358Z,15.93
2019-03-20T21:18:04.737Z,14.75
2019-03-20T21:23:20.253Z,14.93
2019-03-20T21:25:48.678Z,19.35
2019-03-20T21:28:19.726Z,15.20
2019-03-20T21:30:49.699Z,20.80
2019-03-20T21:33:38.913Z,20.43
2019-03-20T21:36:18.036Z,17.65
2019-03-20T21:38:46.473Z,17.65
2019-03-20T21:41:19.136Z,14.25
2019-03-20T21:43:49.110Z,15.28
2019-03-20T21:46:31.251Z,13.78
2019-03-20T21:48:59.679Z,21.93
2019-03-20T21:51:28.876Z,15.32
2019-03-20T21:53:58.840Z,15.93
2019-03-20T21:56:28.810Z,13.90
2019-03-20T21:59:07.964Z,16.27
2019-03-20T22:01:40.698Z,21.45
2019-03-20T22:04:09.122Z,18.90
2019-03-20T22:06:55.519Z,17.17
2019-03-20T22:09:25.501Z,15.13
2019-03-20T22:12:07.431Z,23.15
2019-03-20T22:14:39.571Z,17.67
2019-03-20T22:17:20.679Z,22.37
2019-03-20T22:19:56.520Z,16.67
2019-03-20T22:22:48.571Z,17.73
2019-03-20T22:25:27.402Z,19.52
2019-03-20T22:28:09.320Z,17.75
2019-03-20T22:30:37.752Z,19.70
2019-03-20T22:33:24.330Z,20.37
2019-03-20T22:35:53.069Z,15.23
2019-03-20T22:38:23.048Z,19.65
2019-03-20T22:41:09.621Z,18.30
2019-03-20T22:43:42.271Z,16.62
2019-03-20T22:46:28.800Z,19.25
2019-03-20T22:48:58.766Z,17.70
2019-03-20T22:51:28.736Z,21.35
2019-03-20T22:53:58.723Z,20.32
2019-03-20T22:56:28.691Z,17.57
2019-03-20T22:58:58.661Z,16.10
2019-03-20T23:01:28.705Z,17.80
2019-03-20T23:03:58.674Z,16.50
2019-03-20T23:06:27.101Z,16.95
2019-03-20T23:08:56.814Z,25.20
2019-03-20T23:11:26.433Z,16.85
2019-03-20T23:13:54.863Z,15.90
2019-03-20T23:16:25.632Z,21.02
2019-03-20T23:18:55.232Z,19.60
2019-03-20T23:21:23.670Z,18.40
2019-03-20T23:23:52.088Z,18.87
2019-03-20T23:26:20.523Z,18.17
2019-03-20T23:28:48.957Z,23.27
2019-03-20T23:31:17.400Z,20.97
2019-03-20T23:33:46.869Z,16.48
2019-03-20T23:36:16.940Z,20.90
2019-03-20T23:38:45.437Z,15.70
2019-03-20T23:41:13.875Z,17.55
2019-03-20T23:43:52.458Z,20.62
2019-03-20T23:46:12.516Z,22.85
2019-03-20T23:48:43.449Z,15.78
2019-03-20T23:51:14.875Z,17.92
2019-03-20T23:53:46.130Z,16.17
2019-03-20T23:56:14.554Z,14.25
2019-03-20T23:58:43.058Z,15.30
